Time;durP1;ratioP1;P1;durP2;ratioP2;P2;SDS_P1;SDS_P2;PMS_P1;PMS_P2;Temp;Humidity;BMP_temperature;BMP_pressure;BME280_temperature;BME280_humidity;BME280_pressure;Samples;Min_cycle;Max_cycle;Signal;HPM_P1;HPM_P2
2022/11/14 11:51:56;;;;;;;5.47;3.03;;;;;;;18.96;48.29;100138.91;10176922;27;43676;-70
2022/11/14 11:56:51;;;;;;;5.30;3.35;;;;;;;19.12;47.97;100133.88;10145427;27;66130;-76
2022/11/14 12:01:43;;;;;;;4.63;2.72;;;;;;;19.06;48.16;100130.41;10149187;27;65218;-72
2022/11/14 12:06:38;;;;;;;4.45;2.90;;;;;;;19.19;47.87;100132.31;10149931;27;65880;-74
2022/11/14 12:11:33;;;;;;;3.72;3.40;;;;;;;19.21;47.68;100129.25;10148885;27;67442;-70
2022/11/14 12:16:31;;;;;;;6.40;3.28;;;;;;;19.05;48.03;100125.22;10146283;27;65685;-70
2022/11/14 12:21:41;;;;;;;3.25;2.75;;;;;;;18.94;48.06;100121.91;10147294;27;66348;-73
2022/11/14 12:26:44;;;;;;;4.18;3.28;;;;;;;18.95;48.18;100126.28;10146619;27;66186;-70
2022/11/14 12:31:36;;;;;;;3.88;3.08;;;;;;;19.00;48.17;100118.75;10160774;27;66895;-70
2022/11/14 12:36:29;;;;;;;4.70;3.47;;;;;;;17.11;47.97;100120.94;10154266;27;65569;-69
2022/11/14 12:41:24;;;;;;;5.93;5.32;;;;;;;14.09;54.75;100126.78;10154808;27;66808;-69
2022/11/14 12:46:17;;;;;;;6.07;4.00;;;;;;;16.49;51.13;100115.47;10154666;27;66437;-70
2022/11/14 12:51:47;;;;;;;5.15;3.80;;;;;;;17.73;47.94;100120.47;10150798;27;65728;-71
2022/11/14 12:56:59;;;;;;;3.80;3.15;;;;;;;17.99;48.39;100101.63;10148074;27;66355;-73
2022/11/14 13:02:03;;;;;;;3.40;3.05;;;;;;;18.21;48.13;100090.78;10127994;28;65601;-70
2022/11/14 13:07:03;;;;;;;3.75;2.50;;;;;;;18.26;48.20;100081.63;10118723;28;66678;-71
2022/11/14 13:22:42;;;;;;;8.25;2.80;;;;;;;18.43;48.32;100091.97;10116758;28;67018;-71
2022/11/14 13:27:35;;;;;;;3.92;2.70;;;;;;;18.36;48.54;100080.59;10128089;28;66352;-70
2022/11/14 13:32:53;;;;;;;2.58;2.30;;;;;;;18.45;48.48;100073.28;10126106;27;66158;-70
2022/11/14 13:38:42;;;;;;;4.28;2.70;;;;;;;18.46;48.53;100072.13;10123961;28;66920;-70
2022/11/14 13:43:42;;;;;;;2.78;2.50;;;;;;;18.44;48.71;100057.91;10067452;28;66051;-69
2022/11/14 13:48:48;;;;;;;4.85;2.60;;;;;;;18.32;49.12;100055.69;10117518;28;66187;-68
2022/11/14 13:53:40;;;;;;;3.03;2.45;;;;;;;18.34;49.02;100053.44;10117121;28;65953;-68
2022/11/14 13:58:51;;;;;;;8.30;2.33;;;;;;;18.28;49.15;100049.19;10121628;28;66041;-68
2022/11/14 14:03:55;;;;;;;4.30;2.50;;;;;;;18.32;49.24;100041.16;10123813;28;65902;-68
2022/11/14 14:08:57;;;;;;;6.28;2.55;;;;;;;18.29;49.39;100039.03;10123952;27;66610;-69
2022/11/14 14:13:53;;;;;;;4.97;2.30;;;;;;;18.27;49.35;100036.59;10119724;28;66465;-71
2022/11/14 14:18:52;;;;;;;4.82;2.15;;;;;;;18.22;49.62;100028.47;10119102;28;65684;-68
2022/11/14 14:23:48;;;;;;;3.15;2.47;;;;;;;18.24;49.65;100028.97;10122266;28;65504;-69
2022/11/14 14:28:44;;;;;;;4.03;2.33;;;;;;;18.22;49.59;100023.00;10118677;28;66571;-70
2022/11/14 14:33:40;;;;;;;2.90;2.00;;;;;;;18.17;49.81;100021.16;10119846;28;66343;-74
2022/11/14 14:38:34;;;;;;;2.53;2.30;;;;;;;18.16;50.10;100022.25;10119126;28;66858;-72
2022/11/14 14:43:30;;;;;;;2.88;2.22;;;;;;;18.13;50.12;100028.38;10121680;28;66317;-69
2022/11/14 14:48:23;;;;;;;3.42;2.33;;;;;;;18.03;50.39;100025.81;10117465;28;66524;-68
2022/11/14 14:53:19;;;;;;;4.28;2.47;;;;;;;18.12;50.21;100015.78;10118813;28;65619;-70
2022/11/14 14:58:22;;;;;;;3.92;1.95;;;;;;;18.08;50.36;100013.97;10120151;28;65524;-69
2022/11/14 15:03:14;;;;;;;4.32;2.40;;;;;;;18.14;50.19;100009.97;10122648;28;66327;-69
2022/11/14 15:08:06;;;;;;;6.07;2.17;;;;;;;18.30;50.27;100005.81;10115771;28;66241;-73
2022/11/14 15:12:58;;;;;;;5.50;2.17;;;;;;;18.51;50.07;100000.66;10123255;28;65682;-73
2022/11/14 15:17:52;;;;;;;4.60;2.47;;;;;;;18.70;49.48;99998.59;10121366;27;65601;-73
2022/11/14 15:23:04;;;;;;;3.58;2.42;;;;;;;18.63;49.78;100000.13;10119060;28;66311;-72
2022/11/14 15:27:57;;;;;;;3.38;2.40;;;;;;;18.73;49.76;100000.72;10111708;28;65506;-69
2022/11/14 15:32:50;;;;;;;3.45;2.22;;;;;;;18.77;49.72;99993.47;10111784;28;65646;-72
2022/11/14 15:37:58;;;;;;;3.08;2.20;;;;;;;18.84;49.66;99988.34;10116186;28;66456;-70
2022/11/14 15:42:50;;;;;;;4.00;2.35;;;;;;;18.94;49.65;99988.13;10117880;28;66540;-73
2022/11/14 15:47:42;;;;;;;4.90;2.20;;;;;;;18.97;49.42;99983.91;10114195;28;66373;-72
2022/11/14 15:52:36;;;;;;;8.23;2.20;;;;;;;19.14;49.17;99988.72;10116312;28;66379;-76
2022/11/14 15:57:30;;;;;;;4.00;2.30;;;;;;;19.07;49.06;99989.16;10117256;28;66313;-67
2022/11/14 16:02:23;;;;;;;7.00;2.40;;;;;;;19.14;49.21;99988.72;10115722;27;65186;-71
2022/11/14 16:07:16;;;;;;;4.18;2.20;;;;;;;19.09;49.59;99986.94;10121820;28;65896;-72
2022/11/14 16:12:08;;;;;;;3.70;2.50;;;;;;;19.13;49.43;99987.91;10114162;28;65300;-73
2022/11/14 16:17:01;;;;;;;4.45;2.03;;;;;;;19.13;49.50;99993.41;10113098;28;65493;-73
2022/11/14 16:21:53;;;;;;;4.32;2.08;;;;;;;19.20;49.23;99985.53;10112226;28;66845;-74
2022/11/14 16:26:45;;;;;;;2.47;2.13;;;;;;;19.26;49.03;99987.03;10114511;28;66517;-70
2022/11/14 16:31:37;;;;;;;3.35;2.20;;;;;;;19.31;49.06;99984.16;10119087;28;66429;-72
2022/11/14 16:36:31;;;;;;;3.08;2.20;;;;;;;19.33;49.05;99986.59;10119189;28;66468;-75
2022/11/14 16:41:23;;;;;;;3.55;1.75;;;;;;;19.38;48.88;100000.19;10121734;28;66414;-73
2022/11/14 16:46:15;;;;;;;2.95;1.90;;;;;;;19.42;48.78;99994.84;10125626;28;65019;-71
2022/11/14 16:51:07;;;;;;;2.60;1.67;;;;;;;19.43;48.88;100005.53;10121170;28;64186;-70
2022/11/14 16:56:00;;;;;;;3.08;2.33;;;;;;;19.54;48.38;100000.63;10128008;28;66282;-78
2022/11/14 17:00:52;;;;;;;2.35;1.63;;;;;;;19.44;48.43;100009.91;10123373;28;65601;-71
2022/11/14 17:05:45;;;;;;;3.45;2.10;;;;;;;19.44;48.46;100014.59;10131065;28;66462;-77
2022/11/14 17:10:40;;;;;;;3.65;1.92;;;;;;;19.44;48.24;100009.09;10126274;27;65836;-71
2022/11/14 17:15:33;;;;;;;2.58;2.13;;;;;;;19.41;48.43;100020.75;10121115;28;66833;-70
2022/11/14 17:20:25;;;;;;;2.40;2.00;;;;;;;19.42;48.46;100014.91;10128474;28;65579;-80
2022/11/14 17:25:17;;;;;;;3.33;1.98;;;;;;;19.60;48.62;100016.66;10127007;27;65590;-72
